Flight Track Log - Related Links

Times and Time Zones

All times are in EDT time to prevent confusion due to time zone crossing. See the SWA378 flight status page for this flight to view local times or setup timezone preferences in your user account.

Time Position Orientation Groundspeed Altitude Reporting Facility
EDT Latitude Longitude Course Direction KTS km/h meters Rate Location/Type
Tue 13:21:27 33.8667 -118.5167 209° Southwest 224 415 1,372  Level Southern California TRACON
Tue 13:21:59 33.8369 -118.5181 182° South 238 441 1,707 742 Climbing Los Angeles Center
Tue 13:23:13 33.7633 -118.5203 181° South 269 499 2,682 834 Climbing Los Angeles Center
Tue 13:24:15 33.6806 -118.4653 151° Southeast 331 613 3,597 929 Climbing Los Angeles Center
Tue 13:25:17 33.6453 -118.3328 108° East 361 668 4,602 849 Climbing Los Angeles Center
Tue 13:26:20 33.6444 -118.2083 90° East 379 702 5,364 629 Climbing Los Angeles Center
Tue 13:27:22 33.6439 -118.0711 90° East 400 740 5,913 516 Climbing Los Angeles Center
Tue 13:28:24 33.6442 -117.9211 90° East 438 811 6,431 531 Climbing Los Angeles Center
Tue 13:29:26 33.6444 -117.7286 90° East 476 882 7,010 575 Climbing Los Angeles Center
Tue 13:30:28 33.6444 -117.5686 90° East 482 893 7,620 487 Climbing Los Angeles Center
Tue 13:31:30 33.6428 -117.4011 91° East 497 921 8,016 428 Climbing Los Angeles Center
Tue 13:32:32 33.6403 -117.2267 91° East 519 961 8,504 472 Climbing Los Angeles Center
Tue 13:33:34 33.6383 -117.0467 91° East 537 995 8,992 531 Climbing Los Angeles Center
Tue 13:34:36 33.6381 -116.8286 90° East 547 1012 9,601 590 Climbing Los Angeles Center
Tue 13:35:38 33.6672 -116.6417 79° East 544 1007 10,211 546 Climbing Los Angeles Center
Tue 13:36:40 33.6969 -116.4661 78° East 537 995 10,729 457 Climbing Los Angeles Center
Tue 13:37:42 33.7253 -116.2939 79° East 530 982 11,156 265 Climbing Los Angeles Center
Tue 13:38:44 33.7528 -116.1217 79° East 525 972 11,278 59 Climbing Los Angeles Center
Tue 13:39:47 33.7806 -115.9492 79° East 524 970 11,278  Level Los Angeles Center
Tue 13:41:01 33.8081 -115.7772 79° East 524 970 11,278  Level Los Angeles Center
Tue 13:42:03 33.8414 -115.5708 79° East 524 970 11,278  Level Los Angeles Center
Tue 13:43:05 33.8733 -115.3619 80° East 525 972 11,278  Level Los Angeles Center
Tue 13:44:07 33.9017 -115.1944 78° East 515 954 11,278  Level Los Angeles Center
Tue 13:45:09 33.9272 -115.0211 80° East 521 966 11,278  Level Los Angeles Center
Tue 13:46:12 33.9544 -114.8517 79° East 518 959 11,278  Level Los Angeles Center
Tue 13:47:14 33.9819 -114.6783 79° East 525 972 11,278  Level Los Angeles Center
Tue 13:48:16 34.0044 -114.5042 81° East 527 975 11,278  Level Los Angeles Center
Tue 13:49:05 34.0314 -114.3469 78° East 518 959 11,278  Level Albuquerque Center
Tue 13:50:07 34.0567 -114.1778 80° East 515 954 11,278  Level Albuquerque Center
Tue 13:51:09 34.0822 -114.0083 80° East 514 953 11,278  Level Albuquerque Center
Tue 13:52:10 34.1053 -113.8386 81° East 515 954 11,278  Level Albuquerque Center
Tue 13:53:12 34.1306 -113.6700 80° East 513 950 11,278  Level Albuquerque Center
Tue 13:54:14 34.1578 -113.4672 81° East 512 948 11,278  Level Albuquerque Center
Tue 13:55:16 34.1803 -113.2994 81° East 509 943 11,278  Level Albuquerque Center
Tue 13:56:18 34.2022 -113.1289 81° East 511 946 11,278  Level Albuquerque Center
Tue 13:57:19 34.2264 -112.9589 80° East 512 948 11,278  Level Albuquerque Center
Tue 13:58:21 34.2522 -112.7892 80° East 513 950 11,278  Level Albuquerque Center
Tue 13:59:23 34.2753 -112.6197 81° East 511 946 11,278  Level Albuquerque Center
Tue 14:00:25 34.2975 -112.4503 81° East 511 946 11,278  Level Albuquerque Center
Tue 14:01:26 34.3242 -112.2486 81° East 508 941 11,278  Level Albuquerque Center
Tue 14:02:28 34.3456 -112.0806 81° East 504 933 11,278  Level Albuquerque Center
Tue 14:03:30 34.3672 -111.9133 81° East 501 929 11,278  Level Albuquerque Center
Tue 14:04:31 34.3886 -111.7458 81° East 499 924 11,278  Level Albuquerque Center
Tue 14:05:33 34.4092 -111.5794 81° East 498 922 11,278  Level Albuquerque Center
Tue 14:06:35 34.4294 -111.4139 82° East 496 919 11,278  Level Albuquerque Center
Tue 14:07:36 34.4503 -111.2486 81° East 495 917 11,278  Level Albuquerque Center
Tue 14:08:38 34.4700 -111.0833 82° East 496 919 11,278  Level Albuquerque Center
Tue 14:09:40 34.4903 -110.9175 82° East 495 917 11,278  Level Albuquerque Center
Tue 14:10:41 34.5097 -110.7506 82° East 494 914 11,278  Level Albuquerque Center
Tue 14:11:43 34.5303 -110.5861 81° East 493 912 11,278  Level Albuquerque Center
Tue 14:12:44 34.5533 -110.3914 82° East 491 909 11,278  Level Albuquerque Center
Tue 14:13:46 34.5708 -110.2342 82° East 492 911 11,278  Level Albuquerque Center
Tue 14:14:48 34.5908 -110.0517 82° East 490 908 11,278  Level Albuquerque Center
Tue 14:15:49 34.6083 -109.8939 82° East 493 912 11,278  Level Albuquerque Center
Tue 14:16:51 34.6281 -109.7111 82° East 491 909 11,278  Level Albuquerque Center
Tue 14:17:52 34.6461 -109.5533 82° East 492 911 11,278  Level Albuquerque Center
Tue 14:18:54 34.6653 -109.3725 83° East 489 906 11,278  Level Albuquerque Center
Tue 14:19:55 34.6817 -109.2136 83° East 493 912 11,278  Level Albuquerque Center
Tue 14:20:57 34.6986 -109.0586 82° East 488 904 11,278  Level Albuquerque Center
Tue 14:21:59 34.7169 -108.8778 83° East 485 898 11,278  Level Albuquerque Center
Tue 14:23:00 34.7339 -108.7211 82° East 489 906 11,278  Level Albuquerque Center
Tue 14:24:02 34.7517 -108.5381 83° East 490 908 11,278  Level Albuquerque Center
Tue 14:25:03 34.7683 -108.3736 83° East 487 901 11,278  Level Albuquerque Center
Tue 14:26:05 34.7847 -108.2083 83° East 491 909 11,278  Level Albuquerque Center
Tue 14:27:06 34.7997 -108.0453 84° East 488 904 11,278  Level Albuquerque Center
Tue 14:28:08 34.8142 -107.8811 84° East 489 906 11,278  Level Albuquerque Center
Tue 14:29:10 34.8311 -107.7183 83° East 487 901 11,278  Level Albuquerque Center
Tue 14:30:11 34.8453 -107.5547 84° East 487 901 11,278  Level Albuquerque Center
Tue 14:31:13 34.8592 -107.3931 84° East 484 896 11,278  Level Albuquerque Center
Tue 14:32:14 34.8736 -107.2336 84° East 480 888 11,278  Level Albuquerque Center
Tue 14:33:16 34.8922 -107.0364 83° East 474 877 11,278  Level Albuquerque Center
Tue 14:34:17 34.9047 -106.8853 84° East 471 872 11,278  Level Albuquerque Center
Tue 14:35:19 34.9153 -106.7364 85° East 462 856 11,278  Level Albuquerque Center
Tue 14:36:20 34.9308 -106.5578 84° East 472 874 11,278  Level Albuquerque Center
Tue 14:37:22 34.9414 -106.4167 85° East 481 892 11,278 134 Level Albuquerque Center
Tue 14:38:23 34.9567 -106.2258 84° East 475 880 11,552 268 Climbing Albuquerque Center
Tue 14:39:25 34.9700 -106.0661 84° East 476 882 11,826 162 Climbing Albuquerque Center
Tue 14:40:27 34.9825 -105.9047 85° East 479 887 11,887 30 Climbing Albuquerque Center
Tue 14:41:28 34.9947 -105.7456 85° East 480 888 11,887  Level Albuquerque Center
Tue 14:42:30 35.0078 -105.5814 84° East 482 893 11,887  Level Albuquerque Center
Tue 14:43:32 35.0206 -105.3894 85° East 482 893 11,887  Level Albuquerque Center
Tue 14:44:34 35.0331 -105.2264 85° East 480 888 11,887  Level Albuquerque Center
Tue 14:45:35 35.0458 -105.0647 84° East 476 882 11,887  Level Albuquerque Center
Tue 14:46:37 35.0561 -104.9025 86° East 476 882 11,887  Level Albuquerque Center
Tue 14:47:38 35.0667 -104.7400 85° East 477 884 11,887  Level Albuquerque Center
Tue 14:48:40 35.0803 -104.5653 85° East 476 882 11,887  Level Albuquerque Center
Tue 14:49:42 35.0925 -104.3992 85° East 477 884 11,887  Level Albuquerque Center
Tue 14:50:44 35.1019 -104.2342 86° East 485 898 11,887  Level Albuquerque Center
Tue 14:51:45 35.1128 -104.0694 85° East 488 904 11,887  Level Albuquerque Center
Tue 14:52:47 35.1217 -103.8994 86° East 484 896 11,887  Level Albuquerque Center
Tue 14:53:49 35.1317 -103.7361 86° East 482 893 11,887  Level Albuquerque Center
Tue 14:54:50 35.1419 -103.5717 86° East 483 895 11,887  Level Albuquerque Center
Tue 14:55:52 35.1514 -103.4075 86° East 482 893 11,887  Level Albuquerque Center
Tue 14:56:54 35.1614 -103.2433 86° East 481 892 11,887  Level Albuquerque Center
Tue 14:57:56 35.1717 -103.0506 86° East 483 895 11,887  Level Albuquerque Center
Tue 14:58:57 35.1792 -102.8942 87° East 486 900 11,887  Level Albuquerque Center
Tue 14:59:59 35.1878 -102.7292 86° East 488 904 11,887  Level Albuquerque Center
Tue 15:01:01 35.1956 -102.5647 87° East 487 901 11,887  Level Albuquerque Center
Tue 15:02:03 35.2039 -102.3994 86° East 487 901 11,887  Level Albuquerque Center
Tue 15:03:05 35.2125 -102.2028 87° East 485 898 11,887  Level Albuquerque Center
Tue 15:04:06 35.2200 -102.0386 87° East 484 896 11,887  Level Albuquerque Center
Tue 15:05:08 35.2281 -101.8878 86° East 484 896 11,887  Level Albuquerque Center
Tue 15:06:10 35.2347 -101.7225 87° East 482 893 11,887  Level Albuquerque Center
Tue 15:07:12 35.2439 -101.5303 87° East 483 895 11,887  Level Albuquerque Center
Tue 15:08:13 35.2517 -101.3664 87° East 480 888 11,887  Level Albuquerque Center
Tue 15:09:15 35.2578 -101.2072 87° East 480 888 11,887  Level Albuquerque Center
Tue 15:10:17 35.2644 -101.0453 87° East 479 887 11,887  Level Albuquerque Center
Tue 15:11:19 35.2703 -100.8825 87° East 480 888 11,887  Level Albuquerque Center
Tue 15:12:21 35.2769 -100.7200 87° East 481 892 11,887  Level Albuquerque Center
Tue 15:13:22 35.2853 -100.5239 87° East 482 893 11,887  Level Albuquerque Center
Tue 15:14:24 35.2911 -100.3606 87° East 482 893 11,887  Level Albuquerque Center
Tue 15:15:26 35.2969 -100.1953 87° East 484 896 11,887  Level Albuquerque Center
Tue 15:16:28 35.3022 -100.0319 88° East 483 895 11,887  Level Albuquerque Center
Tue 15:17:30 35.3078 -99.8664 88° East 486 900 11,887  Level Albuquerque Center
Tue 15:18:31 35.3128 -99.7008 88° East 488 904 11,887  Level Albuquerque Center
Tue 15:19:33 35.3181 -99.5339 88° East 489 906 11,887  Level Albuquerque Center
Tue 15:20:35 35.3233 -99.3339 88° East 492 911 11,887  Level Albuquerque Center
Tue 15:21:37 35.3272 -99.1686 88° East 488 904 11,887  Level Albuquerque Center
Tue 15:22:38 35.3322 -99.0011 88° East 491 909 11,887  Level Albuquerque Center
Tue 15:23:40 35.3369 -98.8350 88° East 491 909 11,887  Level Albuquerque Center
Tue 15:24:40 35.3394 -98.6656 89° East 478 885 11,887  Level Fort Worth Center
Tue 15:25:40 35.3431 -98.5003 88° East 478 885 11,887  Level Fort Worth Center
Tue 15:26:40 35.3464 -98.3400 88° East 478 885 11,887  Level Fort Worth Center
Tue 15:27:40 35.3497 -98.1797 88° East 478 885 11,887  Level Fort Worth Center
Tue 15:28:40 35.3525 -98.0167 89° East 478 885 11,887  Level Fort Worth Center
Tue 15:29:40 35.3533 -97.8589 90° East 472 874 11,887  Level Fort Worth Center
Tue 15:30:40 35.3558 -97.6936 89° East 472 874 11,887  Level Fort Worth Center
Tue 15:31:40 35.3581 -97.5358 89° East 472 874 11,887  Level Fort Worth Center
Tue 15:32:40 35.3644 -97.3781 87° East 485 898 11,887  Level Fort Worth Center
Tue 15:33:39 35.3644 -97.1972 90° East 479 887 11,887  Level Fort Worth Center
Tue 15:34:40 35.3681 -97.0494 88° East 485 898 11,887  Level Fort Worth Center
Tue 15:35:40 35.3697 -96.8867 89° East 479 887 11,887  Level Fort Worth Center
Tue 15:36:40 35.3731 -96.7286 88° East 474 877 11,887  Level Fort Worth Center
Tue 15:37:40 35.3764 -96.5633 89° East 474 877 11,887  Level Fort Worth Center
Tue 15:38:40 35.3772 -96.4028 90° East 474 877 11,887  Level Fort Worth Center
Tue 15:39:40 35.3800 -96.2425 89° East 474 877 11,887  Level Fort Worth Center
Tue 15:40:40 35.3806 -96.0819 90° East 474 877 11,887  Level Fort Worth Center
Tue 15:41:40 35.3828 -95.9217 89° East 474 877 11,887  Level Fort Worth Center
Tue 15:42:40 35.3850 -95.7686 89° East 462 856 11,887  Level Fort Worth Center
Tue 15:45:08 35.3886 -95.3692 89° East 482 893 11,887  Level Memphis Center
Tue 15:46:08 35.3886 -95.2086 90° East 482 893 11,887  Level Memphis Center
Tue 15:47:08 35.3864 -95.0456 91° East 482 893 11,887  Level Memphis Center
Tue 15:48:08 35.3864 -94.8825 90° East 482 893 11,887  Level Memphis Center
Tue 15:49:08 35.3878 -94.7247 89° East 476 882 11,887  Level Memphis Center
Tue 15:50:08 35.3850 -94.5642 91° East 476 882 11,887  Level Memphis Center
Tue 15:51:08 35.3861 -94.4039 89° East 476 882 11,887  Level Memphis Center
Tue 15:52:08 35.3856 -94.2231 90° East 482 893 11,887  Level Memphis Center
Tue 15:53:08 35.3717 -94.0644 96° East 477 884 11,887  Level Memphis Center
Tue 15:54:08 35.3617 -93.9061 94° East 477 884 11,887  Level Memphis Center
Tue 15:55:08 35.3494 -93.7478 95° East 471 872 11,887  Level Memphis Center
Tue 15:56:08 35.3389 -93.5869 95° East 466 863 11,887  Level Memphis Center
Tue 15:57:08 35.3264 -93.4314 96° East 466 863 11,887  Level Memphis Center
Tue 15:58:08 35.3156 -93.2731 95° East 459 850 11,887  Level Memphis Center
Tue 15:59:08 35.3025 -93.1150 96° East 469 869 11,887  Level Memphis Center
Tue 16:00:08 35.2911 -92.9594 95° East 469 869 11,887  Level Memphis Center
Tue 16:01:08 35.2797 -92.8064 95° East 463 858 11,887  Level Memphis Center
Tue 16:02:08 35.2636 -92.6533 97° East 472 874 11,887  Level Memphis Center
Tue 16:03:08 35.2519 -92.5006 95° East 479 887 11,887  Level Memphis Center
Tue 16:04:08 35.2397 -92.3453 95° East 466 863 11,887  Level Memphis Center
Tue 16:05:08 35.2275 -92.1922 96° East 461 855 11,887  Level Memphis Center
Tue 16:06:08 35.2131 -92.0394 97° East 461 855 11,887  Level Memphis Center
Tue 16:07:08 35.1983 -91.8842 97° East 461 855 11,887  Level Memphis Center
Tue 16:08:08 35.1856 -91.7317 96° East 461 855 11,887  Level Memphis Center
Tue 16:09:08 35.1703 -91.5814 97° East 461 855 11,887  Level Memphis Center
Tue 16:10:08 35.1592 -91.4264 95° East 456 845 11,887  Level Memphis Center
Tue 16:11:08 35.1439 -91.2611 96° East 450 834 11,887  Level Memphis Center
Tue 16:12:08 35.1303 -91.1086 96° East 445 824 11,887 -107 Level Memphis Center
Tue 16:13:08 35.1144 -90.9561 97° East 445 824 11,674 -259 Descending Memphis Center
Tue 16:14:08 35.0983 -90.8011 97° East 454 840 11,369 -198 Descending Memphis Center
Tue 16:15:08 35.0842 -90.6489 96° East 454 840 11,278 -46 Descending Memphis Center
Tue 16:16:08 35.0700 -90.4967 96° East 449 832 11,278  Level Memphis Center
Tue 16:17:08 35.0533 -90.3419 97° East 449 832 11,278  Level Memphis Center
Tue 16:18:08 35.0386 -90.1897 97° East 449 832 11,278  Level Memphis Center
Tue 16:19:08 35.0236 -90.0528 98° East 449 832 11,278  Level Memphis Center
Tue 16:20:08 35.0064 -89.8981 98° East 456 845 11,278  Level Memphis Center
Tue 16:21:08 34.9828 -89.7386 100° East 468 867 11,278  Level Memphis Center
Tue 16:22:08 34.9567 -89.5639 100° East 483 895 11,278  Level Memphis Center
Tue 16:23:08 34.9306 -89.4122 102° East 468 867 11,278  Level Memphis Center
Tue 16:24:08 34.9086 -89.2556 100° East 468 867 11,278  Level Memphis Center
Tue 16:25:09 34.8842 -89.1039 101° East 461 855 11,278  Level Memphis Center
Tue 16:26:08 34.8617 -88.9475 100° East 461 855 11,278  Level Memphis Center
Tue 16:27:08 34.8369 -88.7961 101° East 461 855 11,278 -30 Level Memphis Center
Tue 16:28:08 34.8183 -88.6622 100° East 461 855 11,217 -183 Descending Memphis Center
Tue 16:29:08 34.7911 -88.5061 102° East 467 864 10,912 -274 Descending Memphis Center
Tue 16:30:08 34.7656 -88.3447 101° East 459 850 10,668 -213 Descending Memphis Center
Tue 16:31:08 34.7422 -88.1936 101° East 459 850 10,485 -229 Descending Memphis Center
Tue 16:32:08 34.7189 -88.0553 102° East 464 859 10,211 -213 Descending Memphis Center
Tue 16:33:08 34.6975 -87.9144 100° East 442 819 10,058 -76 Descending Memphis Center
Tue 16:34:08 34.6733 -87.7561 100° East 432 800 10,058  Level Memphis Center
Tue 16:35:08 34.6472 -87.6131 102° East 432 800 10,058  Level Memphis Center
Tue 16:36:08 34.6258 -87.4900 102° East 426 789 10,058  Level Memphis Center
Tue 16:37:46 34.5814 -87.2328 102° East 453 838 10,058  Level Atlanta Center
Tue 16:38:46 34.5539 -87.0881 103° East 444 822 10,058  Level Atlanta Center
Tue 16:39:46 34.5258 -86.9433 103° East 439 813 10,058  Level Atlanta Center
Tue 16:40:46 34.4981 -86.7961 103° East 439 813 10,058 -137 Level Atlanta Center
Tue 16:41:46 34.4700 -86.6492 103° East 439 813 9,784 -290 Descending Atlanta Center
Tue 16:42:46 34.4417 -86.5047 103° East 439 813 9,479 -305 Descending Atlanta Center
Tue 16:43:46 34.4131 -86.3603 103° East 439 813 9,174 -305 Descending Atlanta Center
Tue 16:44:46 34.3864 -86.2211 103° East 434 803 8,870 -168 Descending Atlanta Center
Tue 16:45:46 34.3597 -86.0844 103° East 429 795 8,839 -229 Descending Atlanta Center
Tue 16:46:46 34.3306 -85.9481 104° East 429 795 8,412 -442 Descending Atlanta Center
Tue 16:47:46 34.3111 -85.8394 102° East 419 776 7,955 -533 Descending Atlanta Center
Tue 16:48:46 34.2800 -85.6881 104° East 392 726 7,346 -579 Descending Atlanta Center
Tue 16:49:46 34.2564 -85.5644 103° East 378 700 6,797 -518 Descending Atlanta Center
Tue 16:50:46 34.2308 -85.4483 105° East 368 681 6,309 -503 Descending Atlanta Center
Tue 16:51:46 34.2069 -85.3375 105° East 352 652 5,791 -488 Descending Atlanta Center
Tue 16:52:46 34.1872 -85.2242 102° East 340 629 5,334 -503 Descending Atlanta Center
Tue 16:53:46 34.1569 -85.1133 108° East 340 629 4,785 -533 Descending Atlanta Center
Tue 16:54:46 34.0889 -85.0244 133° Southeast 345 639 4,267 -259 Descending Atlanta Center
Tue 16:55:46 34.0247 -84.9436 134° Southeast 340 629 4,267 -229 Level Atlanta Center
Tue 16:56:46 33.9606 -84.8603 133° Southeast 340 629 3,810 -305 Descending Atlanta Center
Tue 16:57:46 33.8964 -84.7769 133° Southeast 334 618 3,658 -103 Descending Atlanta Center
Tue 16:58:15 33.8667 -84.7333 129° Southeast 328 607 3,658  Level Atlanta TRACON
Tue 16:59:15 33.8000 -84.6500 134° Southeast 306 566 3,658  Level Atlanta TRACON
Tue 17:00:15 33.7500 -84.5833 132° Southeast 271 502 3,658 -168 Level Atlanta TRACON
Tue 17:01:15 33.7333 -84.5000 104° East 267 494 3,322 -335 Descending Atlanta TRACON
Tue 17:02:15 33.7333 -84.4167 90° East 267 494 2,987 -396 Descending Atlanta TRACON
Tue 17:03:15 33.7333 -84.3333 90° East 252 467 2,530 -488 Descending Atlanta TRACON
Tue 17:04:15 33.7333 -84.2667 90° East 237 439 2,012 -503 Descending Atlanta TRACON
Tue 17:05:15 33.7000 -84.2000 121° Southeast 255 472 1,524 -396 Descending Atlanta TRACON
Tue 17:06:15 33.6500 -84.2500 220° Southwest 205 380 1,219 -351 Descending Atlanta TRACON
Tue 17:07:15 33.6500 -84.3000 270° West 161 298 823 -320 Descending Atlanta TRACON
Tue 17:08:15 33.6500 -84.3500 270° West 139 257 579 -229 Descending Atlanta TRACON
Tue 17:09:15 33.6500 -84.4000 270° West 132 245 366 -213 Descending Atlanta TRACON
Tue 17:11:00 33.6333 -84.4167 250° West  Level FlightAware Approximate
Tue 17:18:00 33.6367 -84.4279 250° West  Level Estimated

Login

Don't have an account? Register now (free) for customized features, flight alerts, and more!